createdAt,value
2022-08-20T00:02:10.818Z,14.25
2022-08-20T00:04:39.424Z,15.05
2022-08-20T00:07:11.814Z,14.67
2022-08-20T00:09:39.490Z,14.35
2022-08-20T00:12:07.710Z,14.80
2022-08-20T00:14:35.593Z,13.60
2022-08-20T00:17:03.887Z,14.10
2022-08-20T00:19:31.549Z,14.13
2022-08-20T00:21:59.165Z,14.88
2022-08-20T00:24:28.068Z,13.80
2022-08-20T00:26:55.689Z,14.18
2022-08-20T00:29:23.246Z,13.82
2022-08-20T00:31:51.256Z,14.63
2022-08-20T00:34:19.465Z,13.70
2022-08-20T00:36:47.031Z,13.48
2022-08-20T00:39:14.814Z,14.00
2022-08-20T00:41:43.754Z,13.07
2022-08-20T00:44:12.897Z,12.73
2022-08-20T00:46:40.875Z,12.35
2022-08-20T00:49:09.612Z,11.70
2022-08-20T00:51:41.014Z,12.07
2022-08-20T00:54:10.881Z,13.07
2022-08-20T00:56:39.103Z,13.57
2022-08-20T00:59:11.635Z,13.65
2022-08-20T01:01:54.849Z,13.68
2022-08-20T01:04:24.932Z,12.82
2022-08-20T01:06:52.549Z,12.85
2022-08-20T01:09:49.491Z,13.40
2022-08-20T01:12:08.085Z,12.90
2022-08-20T01:14:43.616Z,14.75
2022-08-20T01:17:13.543Z,13.35
2022-08-20T01:19:44.193Z,13.95
2022-08-20T01:22:28.251Z,14.07
2022-08-20T01:25:02.332Z,13.13
2022-08-20T01:27:32.150Z,12.00
2022-08-20T01:30:06.205Z,11.35
2022-08-20T01:32:34.629Z,10.88
2022-08-20T01:35:02.197Z,10.93
2022-08-20T01:37:31.457Z,11.30
2022-08-20T01:39:59.682Z,11.40
2022-08-20T01:42:29.925Z,9.85
2022-08-20T01:44:58.861Z,10.55
2022-08-20T01:47:31.358Z,10.73
2022-08-20T01:50:09.039Z,10.60
2022-08-20T01:52:40.041Z,11.10
2022-08-20T01:55:08.681Z,10.95
2022-08-20T01:57:36.696Z,11.40
2022-08-20T02:00:07.428Z,11.97
2022-08-20T02:02:38.583Z,12.00
2022-08-20T02:05:06.281Z,13.98
2022-08-20T02:07:33.843Z,13.43
2022-08-20T02:10:02.139Z,15.98
2022-08-20T02:12:29.720Z,15.20
2022-08-20T02:14:57.318Z,16.33
2022-08-20T02:17:28.074Z,16.30
2022-08-20T02:19:58.787Z,16.45
2022-08-20T02:22:28.094Z,16.05
2022-08-20T02:24:57.462Z,16.40
2022-08-20T02:27:25.049Z,16.73
2022-08-20T02:29:53.186Z,17.73
2022-08-20T02:32:24.694Z,17.77
2022-08-20T02:35:03.741Z,17.77
2022-08-20T02:37:31.716Z,17.23
2022-08-20T02:39:59.348Z,16.73
2022-08-20T02:42:27.355Z,17.63
2022-08-20T02:44:55.084Z,16.80
2022-08-20T02:47:22.638Z,17.67
2022-08-20T02:49:50.160Z,16.93
2022-08-20T02:52:19.174Z,16.25
2022-08-20T02:54:46.992Z,16.25
2022-08-20T02:57:14.848Z,17.80
2022-08-20T02:59:43.740Z,17.13
2022-08-20T03:02:12.023Z,18.57
2022-08-20T03:04:39.863Z,18.13
2022-08-20T03:07:07.741Z,18.15
2022-08-20T03:09:36.621Z,19.15
2022-08-20T03:12:04.334Z,18.80
2022-08-20T03:14:31.925Z,20.70
2022-08-20T03:16:59.815Z,20.15
2022-08-20T03:19:27.439Z,19.67
2022-08-20T03:21:55.281Z,19.65
2022-08-20T03:24:22.835Z,17.63
2022-08-20T03:26:51.777Z,18.37
2022-08-20T03:29:19.343Z,17.25
2022-08-20T03:31:46.971Z,17.70
2022-08-20T03:34:14.520Z,17.15
2022-08-20T03:36:42.066Z,16.92
2022-08-20T03:39:13.145Z,15.53
2022-08-20T03:41:40.787Z,16.27
2022-08-20T03:44:10.188Z,14.77
2022-08-20T03:46:38.943Z,15.80
2022-08-20T03:49:06.514Z,15.57
2022-08-20T03:51:57.768Z,16.13
2022-08-20T03:54:22.149Z,15.93
2022-08-20T03:56:49.718Z,15.98
2022-08-20T03:59:18.634Z,14.70
2022-08-20T04:01:46.999Z,15.93
2022-08-20T04:04:14.761Z,16.60
2022-08-20T04:06:42.374Z,15.45
2022-08-20T04:09:11.954Z,16.42
2022-08-20T04:11:39.991Z,15.70
2022-08-20T04:14:07.894Z,16.45
2022-08-20T04:16:39.431Z,14.87
2022-08-20T04:19:07.411Z,15.13
2022-08-20T04:21:35.883Z,16.35
2022-08-20T04:24:04.311Z,15.10
2022-08-20T04:26:31.941Z,16.85
2022-08-20T04:28:59.720Z,16.23
2022-08-20T04:31:32.692Z,15.82
2022-08-20T04:34:02.011Z,15.93
2022-08-20T04:36:29.551Z,14.90
2022-08-20T04:38:57.120Z,15.02
2022-08-20T04:41:24.855Z,15.50
2022-08-20T04:43:53.557Z,14.98
2022-08-20T04:46:21.545Z,15.52
2022-08-20T04:48:50.412Z,14.55
2022-08-20T04:51:22.706Z,14.93
2022-08-20T04:53:53.286Z,14.77
2022-08-20T04:56:23.608Z,16.23
2022-08-20T04:58:52.398Z,14.02
2022-08-20T05:01:19.995Z,14.18
2022-08-20T05:03:48.216Z,14.48
2022-08-20T05:06:17.885Z,14.10
2022-08-20T05:08:46.797Z,13.38
2022-08-20T05:11:33.807Z,12.85
2022-08-20T05:14:02.816Z,12.52
2022-08-20T05:16:31.366Z,12.48
2022-08-20T05:18:58.901Z,11.33
2022-08-20T05:21:26.455Z,10.80
2022-08-20T05:23:55.423Z,11.40
2022-08-20T05:26:26.266Z,10.73
2022-08-20T05:28:58.454Z,10.27
2022-08-20T05:31:32.692Z,10.40
2022-08-20T05:34:00.993Z,9.82
2022-08-20T05:36:28.598Z,9.13
2022-08-20T05:38:57.571Z,9.00
2022-08-20T05:41:28.672Z,8.30
2022-08-20T05:43:57.094Z,9.47
2022-08-20T05:46:24.765Z,8.70
2022-08-20T05:48:52.290Z,8.35
2022-08-20T05:51:19.855Z,8.77
2022-08-20T05:53:47.396Z,8.35
2022-08-20T05:56:16.318Z,7.93
2022-08-20T05:58:43.887Z,7.53
2022-08-20T06:01:11.503Z,8.40
2022-08-20T06:03:56.786Z,7.95
2022-08-20T06:06:44.708Z,8.40
2022-08-20T06:09:11.892Z,7.63
2022-08-20T06:11:40.765Z,7.68
2022-08-20T06:14:08.335Z,7.03
2022-08-20T06:16:37.113Z,7.28
2022-08-20T06:19:05.219Z,7.43
2022-08-20T06:21:32.962Z,7.10
2022-08-20T06:24:01.206Z,7.20
2022-08-20T06:26:30.303Z,6.50
2022-08-20T06:29:00.314Z,6.22
2022-08-20T06:31:28.309Z,6.50
2022-08-20T06:33:56.177Z,7.10
2022-08-20T06:36:24.897Z,6.22
2022-08-20T06:38:54.887Z,6.13
2022-08-20T06:41:22.411Z,5.38
2022-08-20T06:44:04.838Z,4.97
2022-08-20T06:46:33.176Z,5.17
2022-08-20T06:49:00.971Z,5.38
2022-08-20T06:51:29.307Z,5.63
2022-08-20T06:53:56.965Z,4.80
2022-08-20T06:56:24.743Z,5.10
2022-08-20T06:58:52.284Z,4.77
2022-08-20T07:01:21.404Z,4.40
2022-08-20T07:03:55.679Z,4.78
2022-08-20T07:06:24.994Z,4.80
2022-08-20T07:08:52.645Z,5.10
2022-08-20T07:11:26.580Z,5.25
2022-08-20T07:13:56.531Z,4.80
2022-08-20T07:16:25.528Z,4.65
2022-08-20T07:18:53.291Z,4.30
2022-08-20T07:21:20.821Z,5.32
2022-08-20T07:23:49.509Z,4.90
2022-08-20T07:26:17.101Z,5.03
2022-08-20T07:28:44.760Z,5.13
2022-08-20T07:31:31.324Z,5.45
2022-08-20T07:34:00.506Z,4.63
2022-08-20T07:36:28.242Z,4.40
2022-08-20T07:38:56.879Z,4.70
2022-08-20T07:41:24.852Z,4.75
2022-08-20T07:43:52.426Z,4.60
2022-08-20T07:46:21.395Z,4.53
2022-08-20T07:48:50.329Z,4.68
2022-08-20T07:51:20.572Z,5.00
2022-08-20T07:53:48.778Z,4.40
2022-08-20T07:56:18.754Z,4.35
2022-08-20T07:58:50.004Z,4.00
2022-08-20T08:01:18.295Z,4.45
2022-08-20T08:03:49.745Z,4.40
2022-08-20T08:06:29.775Z,4.70
2022-08-20T08:08:59.341Z,4.13
2022-08-20T08:11:26.961Z,4.13
2022-08-20T08:13:54.681Z,4.03
2022-08-20T08:16:22.284Z,4.43
2022-08-20T08:18:51.465Z,4.07
2022-08-20T08:21:20.983Z,4.47
2022-08-20T08:23:48.543Z,4.10
2022-08-20T08:26:19.072Z,4.30
2022-08-20T08:28:47.296Z,4.00
2022-08-20T08:31:15.288Z,3.55
2022-08-20T08:33:42.864Z,3.50
2022-08-20T08:36:11.498Z,3.70
2022-08-20T08:38:41.233Z,3.90
2022-08-20T08:41:12.373Z,4.03
2022-08-20T08:43:39.935Z,3.65
2022-08-20T08:46:10.209Z,3.80
2022-08-20T08:48:38.726Z,3.97
2022-08-20T08:51:12.632Z,3.55
2022-08-20T08:53:43.262Z,3.70
2022-08-20T08:56:11.512Z,3.80
2022-08-20T08:58:39.357Z,3.17
2022-08-20T09:01:13.845Z,3.30
2022-08-20T09:03:57.922Z,4.10
2022-08-20T09:06:28.209Z,4.20
2022-08-20T09:09:00.984Z,3.78
2022-08-20T09:11:28.743Z,3.40
2022-08-20T09:13:56.295Z,2.95
2022-08-20T09:16:24.841Z,3.80
2022-08-20T09:18:55.513Z,2.83
2022-08-20T09:21:23.089Z,3.60
2022-08-20T09:23:50.618Z,3.72
2022-08-20T09:26:19.630Z,3.40
2022-08-20T09:28:52.071Z,3.15
2022-08-20T09:31:20.027Z,3.40
2022-08-20T09:33:50.738Z,3.60
2022-08-20T09:36:28.795Z,3.50
2022-08-20T09:39:00.435Z,3.70
2022-08-20T09:41:29.366Z,3.70
2022-08-20T09:43:56.920Z,3.45
2022-08-20T09:46:27.308Z,2.80
2022-08-20T09:48:55.204Z,3.50
2022-08-20T09:51:22.923Z,2.63
2022-08-20T09:53:50.494Z,2.70
2022-08-20T09:56:18.364Z,3.33
2022-08-20T09:58:49.007Z,3.15
2022-08-20T10:01:18.221Z,2.97
2022-08-20T10:03:48.044Z,2.70
2022-08-20T10:06:16.714Z,3.20
2022-08-20T10:08:44.285Z,3.30
2022-08-20T10:11:12.144Z,3.20
2022-08-20T10:13:39.705Z,3.57
2022-08-20T10:16:08.764Z,3.60
2022-08-20T10:18:36.458Z,3.40
2022-08-20T10:21:04.048Z,3.60
2022-08-20T10:23:31.602Z,4.10
2022-08-20T10:25:59.148Z,4.40
2022-08-20T10:28:26.669Z,3.83
2022-08-20T10:30:54.242Z,3.90
2022-08-20T10:33:23.135Z,4.35
2022-08-20T10:35:50.660Z,4.25
2022-08-20T10:38:22.350Z,4.00
2022-08-20T10:40:52.382Z,4.27
2022-08-20T10:43:20.333Z,3.90
2022-08-20T10:45:47.880Z,4.00
2022-08-20T10:48:20.828Z,4.28
2022-08-20T10:50:50.653Z,4.10
2022-08-20T10:53:18.275Z,4.28
2022-08-20T10:55:46.246Z,4.22
2022-08-20T10:58:14.074Z,4.10
2022-08-20T11:00:42.164Z,4.10
2022-08-20T11:03:09.718Z,4.13
2022-08-20T11:05:37.308Z,4.23
2022-08-20T11:08:06.387Z,4.07
2022-08-20T11:10:35.218Z,4.20
2022-08-20T11:13:03.039Z,4.20
2022-08-20T11:15:30.817Z,4.45
2022-08-20T11:17:58.591Z,4.65
2022-08-20T11:20:27.087Z,4.22
2022-08-20T11:22:55.147Z,4.30
2022-08-20T11:25:24.073Z,4.38
2022-08-20T11:27:52.628Z,3.83
2022-08-20T11:30:21.039Z,4.20
2022-08-20T11:32:48.652Z,4.10
2022-08-20T11:38:03.797Z,4.30
2022-08-20T11:40:32.952Z,4.00
2022-08-20T11:43:16.970Z,3.78
2022-08-20T11:45:45.780Z,4.00
2022-08-20T11:48:13.373Z,3.67
2022-08-20T11:50:41.316Z,4.10
2022-08-20T11:53:08.949Z,4.37
2022-08-20T11:55:38.702Z,3.60
2022-08-20T11:58:06.570Z,3.85
2022-08-20T12:00:34.535Z,4.25
2022-08-20T12:03:02.531Z,3.75
2022-08-20T12:05:30.451Z,3.63
2022-08-20T12:07:58.076Z,4.22
2022-08-20T12:10:26.863Z,3.42
2022-08-20T12:12:56.111Z,2.60
2022-08-20T12:15:25.295Z,2.47
2022-08-20T12:17:52.925Z,2.60
2022-08-20T12:20:20.547Z,3.30
2022-08-20T12:22:48.145Z,3.05
2022-08-20T12:25:16.197Z,3.28
2022-08-20T12:27:43.808Z,3.50
2022-08-20T12:30:14.805Z,3.80
2022-08-20T12:32:42.885Z,2.70
2022-08-20T12:35:11.237Z,3.38
2022-08-20T12:37:38.956Z,3.30
2022-08-20T12:40:08.585Z,3.33
2022-08-20T12:42:36.474Z,3.10
2022-08-20T12:45:04.201Z,2.60
2022-08-20T12:47:33.913Z,2.25
2022-08-20T12:50:02.614Z,2.42
2022-08-20T12:52:33.021Z,2.63
2022-08-20T12:55:01.085Z,2.40
2022-08-20T12:57:30.082Z,2.92
2022-08-20T12:59:58.999Z,2.53
2022-08-20T13:02:26.812Z,2.53
2022-08-20T13:04:55.758Z,2.53
2022-08-20T13:07:26.165Z,2.25
2022-08-20T13:09:55.430Z,2.90
2022-08-20T13:12:22.982Z,2.93
2022-08-20T13:14:50.578Z,2.70
2022-08-20T13:17:18.736Z,2.58
2022-08-20T13:19:46.936Z,2.70
2022-08-20T13:22:16.328Z,2.83
2022-08-20T13:24:43.938Z,3.17
2022-08-20T13:27:12.725Z,2.40
2022-08-20T13:29:40.315Z,2.70
2022-08-20T13:32:08.650Z,2.72
2022-08-20T13:34:36.217Z,2.88
2022-08-20T13:37:03.830Z,3.28
2022-08-20T13:39:32.779Z,3.00
2022-08-20T13:42:00.351Z,2.80
2022-08-20T13:44:32.752Z,2.60
2022-08-20T13:47:01.228Z,2.70
2022-08-20T13:49:28.803Z,3.00
2022-08-20T13:52:01.651Z,2.50
2022-08-20T13:54:30.353Z,2.50
2022-08-20T13:57:05.913Z,2.92
2022-08-20T13:59:35.658Z,2.90
2022-08-20T14:02:07.155Z,2.60
2022-08-20T14:04:35.042Z,2.63
2022-08-20T14:07:09.579Z,2.40
2022-08-20T14:09:38.247Z,2.85
2022-08-20T14:12:07.243Z,2.35
2022-08-20T14:14:35.047Z,2.40
2022-08-20T14:17:12.949Z,2.43
2022-08-20T14:19:42.688Z,2.50
2022-08-20T14:22:10.276Z,2.10
2022-08-20T14:24:37.866Z,2.25
2022-08-20T14:27:05.673Z,2.17
2022-08-20T14:29:36.713Z,2.40
2022-08-20T14:32:04.811Z,2.10
2022-08-20T14:34:42.242Z,2.30
2022-08-20T14:37:16.729Z,2.00
2022-08-20T14:39:45.055Z,2.58
2022-08-20T14:42:12.933Z,2.50
2022-08-20T14:44:40.690Z,2.47
2022-08-20T14:47:15.898Z,2.30
2022-08-20T14:49:45.688Z,2.45
2022-08-20T14:52:13.760Z,2.30
2022-08-20T14:54:41.868Z,2.58
2022-08-20T14:57:13.381Z,2.50
2022-08-20T14:59:41.090Z,2.30
2022-08-20T15:02:09.409Z,2.60
2022-08-20T15:04:37.057Z,2.88
2022-08-20T15:07:08.155Z,2.53
2022-08-20T15:09:38.746Z,2.70
2022-08-20T15:12:06.517Z,2.40
2022-08-20T15:14:34.132Z,2.25
2022-08-20T15:17:07.021Z,2.58
2022-08-20T15:19:36.176Z,2.20
2022-08-20T15:22:03.757Z,2.30
2022-08-20T15:24:32.669Z,2.40
2022-08-20T15:27:00.249Z,2.13
2022-08-20T15:29:27.874Z,2.30
2022-08-20T15:31:55.416Z,3.10
2022-08-20T15:34:22.971Z,3.25
2022-08-20T15:36:50.505Z,2.53
2022-08-20T15:39:18.075Z,2.35
2022-08-20T15:41:47.056Z,2.60
2022-08-20T15:44:14.623Z,2.10
2022-08-20T15:46:42.225Z,2.33
2022-08-20T15:49:12.297Z,2.20
2022-08-20T15:51:44.333Z,2.17
2022-08-20T15:54:14.854Z,2.05
2022-08-20T15:56:51.228Z,2.17
2022-08-20T15:59:26.502Z,2.28
2022-08-20T16:01:59.278Z,2.13
2022-08-20T16:04:53.530Z,2.10
2022-08-20T16:07:23.601Z,2.20
2022-08-20T16:09:57.529Z,2.03
2022-08-20T16:12:30.639Z,2.13
2022-08-20T16:15:00.617Z,2.07
2022-08-20T16:17:31.686Z,1.67
2022-08-20T16:20:03.349Z,1.90
2022-08-20T16:22:31.667Z,2.45
2022-08-20T16:24:59.233Z,1.70
2022-08-20T16:27:34.915Z,1.80
2022-08-20T16:30:04.032Z,1.60
2022-08-20T16:32:34.040Z,1.85
2022-08-20T16:35:04.794Z,1.70
2022-08-20T16:37:36.885Z,1.58
2022-08-20T16:40:10.932Z,1.70
2022-08-20T16:42:41.592Z,1.77
2022-08-20T16:45:12.885Z,1.80
2022-08-20T16:47:41.191Z,1.85
2022-08-20T16:50:11.745Z,2.10
2022-08-20T16:52:42.513Z,1.90
2022-08-20T16:55:10.109Z,1.85
2022-08-20T16:57:37.759Z,1.60
2022-08-20T17:00:13.560Z,1.85
2022-08-20T17:02:59.083Z,1.85
2022-08-20T17:05:28.466Z,1.70
2022-08-20T17:08:00.278Z,1.75
2022-08-20T17:10:28.785Z,1.80
2022-08-20T17:12:59.474Z,2.00
2022-08-20T17:15:30.281Z,1.80
2022-08-20T17:17:57.924Z,1.90
2022-08-20T17:20:29.098Z,1.70
2022-08-20T17:23:09.492Z,2.00
2022-08-20T17:25:38.477Z,1.67
2022-08-20T17:28:13.996Z,1.80
2022-08-20T17:30:43.254Z,1.70
2022-08-20T17:33:20.434Z,1.75
2022-08-20T17:35:52.031Z,1.80
2022-08-20T17:38:25.838Z,1.98
2022-08-20T17:40:59.269Z,1.70
2022-08-20T17:43:28.162Z,1.90
2022-08-20T17:45:58.713Z,1.80
2022-08-20T17:48:36.400Z,1.65
2022-08-20T17:51:07.893Z,2.08
2022-08-20T17:53:38.338Z,2.10
2022-08-20T17:56:17.318Z,2.23
2022-08-20T17:58:54.668Z,2.00
2022-08-20T18:01:25.939Z,1.90
2022-08-20T18:03:54.066Z,1.90
2022-08-20T18:06:30.674Z,1.58
2022-08-20T18:09:02.856Z,2.17
2022-08-20T18:11:33.921Z,2.22
2022-08-20T18:14:11.293Z,1.80
2022-08-20T18:16:45.428Z,1.73
2022-08-20T18:19:16.070Z,1.90
2022-08-20T18:21:51.166Z,2.03
2022-08-20T18:24:21.790Z,2.17
2022-08-20T18:26:51.778Z,1.83
2022-08-20T18:29:21.196Z,1.90
2022-08-20T18:31:54.223Z,1.90
2022-08-20T18:34:22.516Z,2.40
2022-08-20T18:36:57.069Z,2.35
2022-08-20T18:39:27.571Z,2.50
2022-08-20T18:41:59.433Z,2.03
2022-08-20T18:44:35.634Z,2.30
2022-08-20T18:47:06.900Z,2.30
2022-08-20T18:49:35.781Z,2.22
2022-08-20T18:52:10.634Z,1.95
2022-08-20T18:54:38.871Z,2.17
2022-08-20T18:57:07.525Z,2.20
2022-08-20T18:59:39.724Z,2.00
2022-08-20T19:02:17.448Z,2.20
2022-08-20T19:04:47.987Z,1.92
2022-08-20T19:07:20.049Z,2.20
2022-08-20T19:10:04.391Z,2.10
2022-08-20T19:12:42.372Z,2.30
2022-08-20T19:15:13.036Z,2.35
2022-08-20T19:17:49.906Z,2.28
2022-08-20T19:20:20.335Z,2.35
2022-08-20T19:22:48.367Z,2.28
2022-08-20T19:25:23.931Z,2.53
2022-08-20T19:27:51.763Z,2.72
2022-08-20T19:30:29.078Z,2.40
2022-08-20T19:32:58.148Z,2.40
2022-08-20T19:35:25.835Z,2.35
2022-08-20T19:37:53.475Z,2.70
2022-08-20T19:40:22.780Z,2.60
2022-08-20T19:42:52.357Z,2.38
2022-08-20T19:45:24.968Z,2.63
2022-08-20T19:47:55.427Z,2.38
2022-08-20T19:50:29.747Z,2.30
2022-08-20T19:53:00.274Z,2.65
2022-08-20T19:55:30.223Z,2.58
2022-08-20T19:57:58.605Z,2.53
2022-08-20T20:00:26.990Z,2.70
2022-08-20T20:02:54.605Z,2.80
2022-08-20T20:05:22.669Z,2.80
2022-08-20T20:07:53.387Z,2.90
2022-08-20T20:10:24.579Z,3.00
2022-08-20T20:12:52.152Z,2.70
2022-08-20T20:15:19.795Z,3.00
2022-08-20T20:17:47.479Z,3.17
2022-08-20T20:20:21.509Z,3.20
2022-08-20T20:22:50.255Z,2.92
2022-08-20T20:25:21.346Z,2.90
2022-08-20T20:27:49.199Z,2.80
2022-08-20T20:30:21.577Z,3.08
2022-08-20T20:32:50.448Z,3.08
2022-08-20T20:35:24.386Z,2.80
2022-08-20T20:37:58.654Z,2.78
2022-08-20T20:40:28.701Z,2.97
2022-08-20T20:43:02.314Z,3.40
2022-08-20T20:45:32.982Z,2.78
2022-08-20T20:48:00.538Z,3.30
2022-08-20T20:50:30.001Z,2.83
2022-08-20T20:52:59.094Z,3.10
2022-08-20T20:55:30.022Z,2.90
2022-08-20T20:57:57.966Z,3.28
2022-08-20T21:00:27.274Z,3.13
2022-08-20T21:02:55.230Z,3.25
2022-08-20T21:05:25.031Z,3.60
2022-08-20T21:07:54.386Z,3.40
2022-08-20T21:10:22.792Z,3.20
2022-08-20T21:12:53.178Z,3.30
2022-08-20T21:15:21.646Z,3.10
2022-08-20T21:17:49.645Z,3.40
2022-08-20T21:20:17.277Z,3.28
2022-08-20T21:22:44.914Z,3.67
2022-08-20T21:25:12.460Z,3.40
2022-08-20T21:27:41.173Z,3.15
2022-08-20T21:30:10.646Z,3.40
2022-08-20T21:32:38.242Z,3.92
2022-08-20T21:35:06.132Z,3.70
2022-08-20T21:37:33.810Z,3.90
2022-08-20T21:40:01.464Z,3.95
2022-08-20T21:42:29.854Z,4.40
2022-08-20T21:44:57.505Z,4.53
2022-08-20T21:47:26.496Z,3.85
2022-08-20T21:49:54.117Z,4.22
2022-08-20T21:52:21.687Z,4.05
2022-08-20T21:54:49.256Z,4.30
2022-08-20T21:57:19.835Z,4.13
2022-08-20T21:59:47.397Z,4.30
2022-08-20T22:02:15.490Z,4.10
2022-08-20T22:04:44.579Z,4.22
2022-08-20T22:07:12.206Z,3.87
2022-08-20T22:09:39.847Z,4.22
2022-08-20T22:12:08.514Z,4.18
2022-08-20T22:14:36.092Z,3.90
2022-08-20T22:17:03.707Z,3.95
2022-08-20T22:19:31.262Z,3.60
2022-08-20T22:22:00.198Z,4.10
2022-08-20T22:24:29.451Z,4.25
2022-08-20T22:26:57.338Z,4.18
2022-08-20T22:29:24.913Z,4.20
2022-08-20T22:31:52.606Z,5.10
2022-08-20T22:34:20.808Z,5.20
2022-08-20T22:36:48.949Z,5.20
2022-08-20T22:39:17.837Z,4.63
2022-08-20T22:41:45.452Z,4.82
2022-08-20T22:44:12.983Z,5.80
2022-08-20T22:46:46.423Z,5.13
2022-08-20T22:49:17.632Z,5.45
2022-08-20T22:51:45.380Z,5.10
2022-08-20T22:54:16.626Z,4.72
2022-08-20T22:56:45.515Z,5.40
2022-08-20T22:59:13.487Z,5.00
2022-08-20T23:01:44.537Z,4.70
2022-08-20T23:04:14.302Z,5.00
2022-08-20T23:06:42.159Z,5.18
2022-08-20T23:09:13.091Z,5.40
2022-08-20T23:11:40.785Z,5.30
2022-08-20T23:14:09.701Z,4.93
2022-08-20T23:16:37.838Z,5.38
2022-08-20T23:19:05.527Z,5.30
2022-08-20T23:21:33.111Z,5.40
2022-08-20T23:24:00.636Z,5.47
2022-08-20T23:26:28.331Z,5.03
2022-08-20T23:28:55.849Z,5.20
2022-08-20T23:31:24.781Z,5.07
2022-08-20T23:33:52.296Z,5.13
2022-08-20T23:36:20.461Z,5.20
2022-08-20T23:38:48.046Z,5.60
2022-08-20T23:41:15.744Z,5.40
2022-08-20T23:43:44.080Z,5.22
2022-08-20T23:46:11.951Z,5.30
2022-08-20T23:48:40.894Z,5.80
2022-08-20T23:51:08.474Z,5.22
2022-08-20T23:53:36.548Z,5.75
2022-08-20T23:56:04.347Z,5.43
2022-08-20T23:58:31.927Z,5.83
